This is the latest recevied weather packets stored in our database for station/object BadBuchau. If no packets are shown the sender has not sent any weather packets the latest 10 day(s).
| Time | Temp. | Humidity | Pressure | Rain* | Wind** | Luminosity | Snow |
|---|---|---|---|---|---|---|---|
| 1777834930 | 17.22° C | 43% | 1012.2 hPa | 0 mm | - | - | - |
| 1777833130 | 18.89° C | 46% | 1011.7 hPa | 0 mm | - | - | - |
| 1777831330 | 20° C | 46% | 1011.2 hPa | 0 mm | - | - | - |
| 1777829530 | 20.56° C | 44% | 1011 hPa | 0 mm | - | - | - |
| 1777827731 | 21.67° C | 42% | 1010.7 hPa | 0 mm | - | - | - |
| 1777825930 | 22.22° C | 34% | 1010.8 hPa | 0 mm | - | - | - |
| 1777824131 | 22.22° C | 32% | 1010.8 hPa | 0 mm | - | - | - |
| 1777822330 | 23.33° C | 30% | 1010.7 hPa | 0 mm | - | - | - |
| 1777820530 | 23.33° C | 28% | 1010.9 hPa | 0 mm | - | - | - |
| 1777818730 | 23.33° C | 25% | 1010.9 hPa | 0 mm | - | - | - |
| 1777816930 | 23.33° C | 24% | 1011.2 hPa | 0 mm | - | - | - |
| 1777815131 | 23.33° C | 34% | 1011.6 hPa | 0 mm | - | - | - |
| 1777813330 | 22.22° C | 38% | 1011.9 hPa | 0 mm | - | - | - |
| 1777811536 | 21.67° C | 42% | 1012.2 hPa | 0 mm | - | - | - |
| 1777809730 | 22.78° C | 39% | 1012.3 hPa | 0 mm | - | - | - |
| 1777807932 | 22.78° C | 42% | 1012.4 hPa | 0 mm | - | - | - |
| 1777806130 | 23.33° C | 40% | 1012.8 hPa | 0 mm | - | - | - |
| 1777804332 | 22.22° C | 38% | 1013 hPa | 0 mm | - | - | - |
| 1777802532 | 22.78° C | 38% | 1013.2 hPa | 0 mm | - | - | - |
| 1777800731 | 22.22° C | 40% | 1013.6 hPa | 0 mm | - | - | - |
| 1777798930 | 20.56° C | 46% | 1014.1 hPa | 0 mm | - | - | - |
| 1777797132 | 18.89° C | 51% | 1014.3 hPa | 0 mm | - | - | - |
| 1777795332 | 17.78° C | 58% | 1014.4 hPa | 0 mm | - | - | - |
| 1777793531 | 16.11° C | 64% | 1014.3 hPa | 0 mm | - | - | - |
| 1777791731 | 13.33° C | 71% | 1014.3 hPa | 0 mm | - | - | - |
* Rain since midnight (hover to see other rain measurements)
** Current wind speed in m/s (hover to see current wind gust speed)